East Barre, Vermont
Current Conditions -  °F | °C
As of 1:51 AM on Thursday 23 Oct 2014 (Local Time) from KMPV Reporting Station
Overcast Overcast  
Wind Chill: 41°   Ceiling: 1800
Heat Index: 45°   Visibility: 10mi
Dew Point: 39°   Wind: 7mph
Humidity: 80%   Direction: 350°N
Pressure: 30.03"   Gusts: NA
Location:  44.16°N, 72.45°W
Report Text: KMPV 230551Z AUTO 35006KT 10SM OVC018 07/04 A3003 RMK AO2 SLP176 60000 T00720039 10089 20072 56016 $
Loading
Personal Weather Stations






























Interactive Weather Map
Tropical Storm Tracking
New forecast layout! Learn more

10-Day Weather Forecast

Advertisements
Track Severe Weather on mobile